createdAt,value
2023-03-02T00:00:20.854Z,173.00
2023-03-02T00:03:14.300Z,171.90
2023-03-02T00:05:47.634Z,175.80
2023-03-02T00:08:20.935Z,154.50
2023-03-02T00:10:54.822Z,171.70
2023-03-02T00:13:26.552Z,166.00
2023-03-02T00:15:58.320Z,113.00
2023-03-02T00:18:30.105Z,154.20
2023-03-02T00:21:02.185Z,151.90
2023-03-02T00:23:33.882Z,171.80
2023-03-02T00:26:05.993Z,156.60
2023-03-02T00:28:37.773Z,166.50
2023-03-02T00:31:09.802Z,166.10
2023-03-02T00:33:42.236Z,181.00
2023-03-02T00:38:53.279Z,193.70
2023-03-02T00:43:55.188Z,165.40
2023-03-02T00:46:28.582Z,167.20
2023-03-02T00:49:00.572Z,166.40
2023-03-02T00:51:32.490Z,156.30
2023-03-02T00:54:04.547Z,165.70
2023-03-02T00:56:36.434Z,163.70
2023-03-02T00:59:26.713Z,162.00
2023-03-02T01:02:06.052Z,167.50
2023-03-02T01:04:41.244Z,164.90
2023-03-02T01:07:14.874Z,150.80
2023-03-02T01:09:49.162Z,164.00
2023-03-02T01:12:20.917Z,159.10
2023-03-02T01:14:52.708Z,177.90
2023-03-02T01:17:25.336Z,157.40
2023-03-02T01:19:57.410Z,166.70
2023-03-02T01:22:29.446Z,119.90
2023-03-02T01:25:01.628Z,171.50
2023-03-02T01:27:33.479Z,158.30
2023-03-02T01:30:06.540Z,110.40
2023-03-02T01:32:38.934Z,154.10
2023-03-02T01:35:12.048Z,143.60
2023-03-02T01:40:16.226Z,141.70
2023-03-02T01:42:58.672Z,138.00
2023-03-02T01:45:51.678Z,135.30
2023-03-02T01:48:31.954Z,127.10
2023-03-02T01:51:06.553Z,123.90
2023-03-02T01:53:46.753Z,125.40
2023-03-02T01:56:23.354Z,117.30
2023-03-02T01:59:01.908Z,111.10
2023-03-02T02:01:37.462Z,102.90
2023-03-02T02:04:10.501Z,103.20
2023-03-02T02:06:48.507Z,107.40
2023-03-02T02:09:21.925Z,100.60
2023-03-02T02:11:53.618Z,106.00
2023-03-02T02:14:25.805Z,79.70
2023-03-02T02:16:57.655Z,109.10
2023-03-02T02:19:41.346Z,97.40
2023-03-02T02:22:16.190Z,93.30
2023-03-02T02:24:51.104Z,98.40
2023-03-02T02:27:29.895Z,81.00
2023-03-02T02:30:04.543Z,87.90
2023-03-02T02:32:40.012Z,93.50
2023-03-02T02:35:17.398Z,112.30
2023-03-02T02:37:53.657Z,107.50
2023-03-02T02:40:47.267Z,98.60
2023-03-02T02:43:22.552Z,95.80
2023-03-02T02:45:57.652Z,83.20
2023-03-02T02:48:32.826Z,82.30
2023-03-02T02:51:08.080Z,74.60
2023-03-02T02:53:49.555Z,81.50
2023-03-02T02:56:21.781Z,85.90
2023-03-02T02:58:57.013Z,88.60
2023-03-02T03:01:29.186Z,83.60
2023-03-02T03:04:04.930Z,82.70
2023-03-02T03:06:42.343Z,75.30
2023-03-02T03:09:15.527Z,75.80
2023-03-02T03:11:53.491Z,75.10
2023-03-02T03:14:30.497Z,75.70
2023-03-02T03:17:02.606Z,70.10
2023-03-02T03:19:35.546Z,69.80
2023-03-02T03:22:07.579Z,77.20
2023-03-02T03:24:41.077Z,78.00
2023-03-02T03:27:16.588Z,85.70
2023-03-02T03:29:49.624Z,86.30
2023-03-02T03:32:23.308Z,99.40
2023-03-02T03:34:57.132Z,98.00
2023-03-02T03:37:34.509Z,90.40
2023-03-02T03:40:09.398Z,100.20
2023-03-02T03:42:41.226Z,172.00
2023-03-02T03:45:13.916Z,94.20
2023-03-02T03:47:46.929Z,111.00
2023-03-02T03:50:18.924Z,103.00
2023-03-02T03:52:51.172Z,164.70
2023-03-02T03:55:29.039Z,227.60
2023-03-02T03:58:01.479Z,111.60
2023-03-02T04:00:34.717Z,109.30
2023-03-02T04:03:09.092Z,102.30
2023-03-02T04:05:42.059Z,96.80
2023-03-02T04:08:14.142Z,200.20
2023-03-02T04:13:17.388Z,92.90
2023-03-02T04:15:49.841Z,79.60
2023-03-02T04:18:21.658Z,85.30
2023-03-02T04:20:53.416Z,85.70
2023-03-02T04:23:25.237Z,105.60
2023-03-02T04:25:57.772Z,103.40
2023-03-02T04:31:00.453Z,147.80
2023-03-02T04:33:32.346Z,68.60
2023-03-02T04:36:04.592Z,82.20
2023-03-02T04:38:36.621Z,117.10
2023-03-02T04:41:08.704Z,106.40
2023-03-02T04:43:40.418Z,151.10
2023-03-02T04:46:15.400Z,126.50
2023-03-02T04:48:47.144Z,84.30
2023-03-02T04:51:25.140Z,133.20
2023-03-02T04:53:59.476Z,144.30
2023-03-02T04:56:33.024Z,197.50
2023-03-02T04:59:05.465Z,106.30
2023-03-02T05:01:37.690Z,147.50
2023-03-02T05:06:40.467Z,84.50
2023-03-02T05:09:12.922Z,79.00
2023-03-02T05:11:44.945Z,81.30
2023-03-02T05:14:16.732Z,154.80
2023-03-02T05:16:48.556Z,173.10
2023-03-02T05:19:20.583Z,97.20
2023-03-02T05:21:52.898Z,105.80
2023-03-02T05:24:24.645Z,81.80
2023-03-02T05:26:56.326Z,87.90
2023-03-02T05:29:28.420Z,72.60
2023-03-02T05:32:00.152Z,93.90
2023-03-02T05:34:31.897Z,81.00
2023-03-02T05:37:03.753Z,107.00
2023-03-02T05:39:35.862Z,90.90
2023-03-02T05:42:07.987Z,77.40
2023-03-02T05:44:39.919Z,105.20
2023-03-02T05:47:11.677Z,88.90
2023-03-02T05:49:43.503Z,138.60
2023-03-02T05:52:15.324Z,102.30
2023-03-02T05:54:47.182Z,129.80
2023-03-02T05:57:19.183Z,124.30
2023-03-02T05:59:51.741Z,83.20
2023-03-02T06:02:23.538Z,139.70
2023-03-02T06:04:55.552Z,104.30
2023-03-02T06:07:27.633Z,94.90
2023-03-02T06:09:59.696Z,116.60
2023-03-02T06:12:34.734Z,88.70
2023-03-02T06:15:08.450Z,71.20
2023-03-02T06:17:40.596Z,94.50
2023-03-02T06:20:14.818Z,59.40
2023-03-02T06:22:48.267Z,58.80
2023-03-02T06:25:22.407Z,81.20
2023-03-02T06:27:54.908Z,71.20
2023-03-02T06:30:28.859Z,83.60
2023-03-02T06:33:04.521Z,68.50
2023-03-02T06:35:37.070Z,63.90
2023-03-02T06:38:09.147Z,45.80
2023-03-02T06:40:43.062Z,77.10
2023-03-02T06:43:15.114Z,73.00
2023-03-02T06:45:46.929Z,105.20
2023-03-02T06:48:18.940Z,92.20
2023-03-02T06:50:50.885Z,76.60
2023-03-02T06:53:23.530Z,88.70
2023-03-02T06:55:55.419Z,79.10
2023-03-02T06:58:27.292Z,82.40
2023-03-02T07:00:59.827Z,60.30
2023-03-02T07:06:02.101Z,62.40
2023-03-02T07:08:34.658Z,90.90
2023-03-02T07:11:10.591Z,66.20
2023-03-02T07:13:42.907Z,75.20
2023-03-02T07:16:16.508Z,61.80
2023-03-02T07:18:48.208Z,48.70
2023-03-02T07:21:19.985Z,68.70
2023-03-02T07:23:51.742Z,80.50
2023-03-02T07:26:23.692Z,52.50
2023-03-02T07:28:55.459Z,79.60
2023-03-02T07:31:27.485Z,49.20
2023-03-02T07:33:59.748Z,54.50
2023-03-02T07:36:31.467Z,54.40
2023-03-02T07:39:05.561Z,36.60
2023-03-02T07:41:37.660Z,58.60
2023-03-02T07:44:09.980Z,62.30
2023-03-02T07:46:41.759Z,63.90
2023-03-02T07:49:13.626Z,69.20
2023-03-02T07:51:45.332Z,56.10
2023-03-02T07:54:17.163Z,40.20
2023-03-02T07:56:48.913Z,69.40
2023-03-02T07:59:20.946Z,51.50
2023-03-02T08:01:53.162Z,52.00
2023-03-02T08:04:25.341Z,54.20
2023-03-02T08:06:57.143Z,47.60
2023-03-02T08:09:28.989Z,55.70
2023-03-02T08:12:00.729Z,48.70
2023-03-02T08:14:33.179Z,60.40
2023-03-02T08:17:07.178Z,50.90
2023-03-02T08:19:39.032Z,64.10
2023-03-02T08:22:10.814Z,52.20
2023-03-02T08:24:43.466Z,56.00
2023-03-02T08:27:17.206Z,71.90
2023-03-02T08:29:48.932Z,44.70
2023-03-02T08:32:21.111Z,92.30
2023-03-02T08:34:52.964Z,79.60
2023-03-02T08:37:24.884Z,78.80
2023-03-02T08:39:58.659Z,98.50
2023-03-02T08:42:31.021Z,88.30
2023-03-02T08:45:03.189Z,86.60
2023-03-02T08:47:34.950Z,91.20
2023-03-02T08:50:09.181Z,102.80
2023-03-02T08:52:40.992Z,88.50
2023-03-02T08:55:13.875Z,47.20
2023-03-02T08:57:45.773Z,64.60
2023-03-02T09:00:19.811Z,77.50
2023-03-02T09:02:52.039Z,58.20
2023-03-02T09:05:23.887Z,69.40
2023-03-02T09:07:55.719Z,57.90
2023-03-02T09:10:27.496Z,51.50
2023-03-02T09:12:59.298Z,51.30
2023-03-02T09:15:32.141Z,47.50
2023-03-02T09:18:04.455Z,53.80
2023-03-02T09:20:36.620Z,60.20
2023-03-02T09:23:08.996Z,55.40
2023-03-02T09:25:40.824Z,41.00
2023-03-02T09:28:12.703Z,41.90
2023-03-02T09:30:52.086Z,31.70
2023-03-02T09:33:24.319Z,53.20
2023-03-02T09:35:56.822Z,44.20
2023-03-02T09:38:29.246Z,61.60
2023-03-02T09:41:35.828Z,48.00
2023-03-02T09:44:28.061Z,61.50
2023-03-02T09:47:05.098Z,48.60
2023-03-02T09:49:47.974Z,46.40
2023-03-02T09:52:29.755Z,48.40
2023-03-02T09:55:12.495Z,51.00
2023-03-02T09:57:46.276Z,58.70
2023-03-02T10:00:24.112Z,47.50
2023-03-02T10:03:11.363Z,51.40
2023-03-02T10:05:49.500Z,45.40
2023-03-02T10:08:25.105Z,47.00
2023-03-02T10:11:11.882Z,50.00
2023-03-02T10:13:49.254Z,44.00
2023-03-02T10:16:32.128Z,45.90
2023-03-02T10:19:12.618Z,43.10
2023-03-02T10:21:48.097Z,45.80
2023-03-02T10:24:30.801Z,46.20
2023-03-02T10:27:12.620Z,54.40
2023-03-02T10:29:52.091Z,47.90
2023-03-02T10:32:26.560Z,45.40
2023-03-02T10:35:01.816Z,49.80
2023-03-02T10:37:35.633Z,48.30
2023-03-02T10:40:13.280Z,43.10
2023-03-02T10:42:45.166Z,45.90
2023-03-02T10:45:28.765Z,45.70
2023-03-02T10:48:06.007Z,49.20
2023-03-02T10:50:40.604Z,57.20
2023-03-02T10:53:19.449Z,57.10
2023-03-02T10:55:54.110Z,53.10
2023-03-02T10:58:31.686Z,46.10
2023-03-02T11:01:07.151Z,49.30
2023-03-02T11:03:39.410Z,46.40
2023-03-02T11:06:22.788Z,55.00
2023-03-02T11:09:04.079Z,41.60
2023-03-02T11:11:38.294Z,56.90
2023-03-02T11:14:18.284Z,51.20
2023-03-02T11:16:52.225Z,45.00
2023-03-02T11:19:33.246Z,47.10
2023-03-02T11:22:20.149Z,46.10
2023-03-02T11:24:57.789Z,44.80
2023-03-02T11:27:34.994Z,52.40
2023-03-02T11:30:15.885Z,51.00
2023-03-02T11:32:57.050Z,42.40
2023-03-02T11:35:34.521Z,37.40
2023-03-02T11:38:19.061Z,73.00
2023-03-02T11:40:56.756Z,53.90
2023-03-02T11:43:29.665Z,49.40
2023-03-02T11:46:13.878Z,48.10
2023-03-02T11:48:54.508Z,41.80
2023-03-02T11:51:39.091Z,42.70
2023-03-02T11:54:44.960Z,42.30
2023-03-02T11:57:28.981Z,66.00
2023-03-02T12:00:05.534Z,45.10
2023-03-02T12:02:44.370Z,57.80
2023-03-02T12:05:29.934Z,47.70
2023-03-02T12:08:04.256Z,49.40
2023-03-02T12:10:40.493Z,42.30
2023-03-02T12:13:23.346Z,44.30
2023-03-02T12:18:45.810Z,35.90
2023-03-02T12:21:20.655Z,41.30
2023-03-02T12:24:03.924Z,42.20
2023-03-02T12:26:40.158Z,47.20
2023-03-02T12:29:27.064Z,47.70
2023-03-02T12:31:59.772Z,35.70
2023-03-02T12:37:16.102Z,49.20
2023-03-02T12:40:26.127Z,46.90
2023-03-02T12:43:20.528Z,43.10
2023-03-02T12:46:24.230Z,47.00
2023-03-02T12:49:04.948Z,45.30
2023-03-02T12:51:51.449Z,32.40
2023-03-02T12:54:25.316Z,40.80
2023-03-02T12:57:17.544Z,36.90
2023-03-02T13:00:00.265Z,35.60
2023-03-02T13:02:37.266Z,33.10
2023-03-02T13:05:18.627Z,50.00
2023-03-02T13:07:59.609Z,50.20
2023-03-02T13:10:37.129Z,42.90
2023-03-02T13:13:19.440Z,33.60
2023-03-02T13:15:55.397Z,29.80
2023-03-02T13:18:34.632Z,26.60
2023-03-02T13:21:12.895Z,35.80
2023-03-02T13:23:51.369Z,35.80
2023-03-02T13:26:32.649Z,33.40
2023-03-02T13:29:08.588Z,40.20
2023-03-02T13:31:42.321Z,40.50
2023-03-02T13:34:24.468Z,36.10
2023-03-02T13:36:58.007Z,40.90
2023-03-02T13:39:33.182Z,42.20
2023-03-02T13:42:09.210Z,38.50
2023-03-02T13:44:41.792Z,43.30
2023-03-02T13:47:25.674Z,38.20
2023-03-02T13:50:10.220Z,47.10
2023-03-02T13:52:42.264Z,43.10
2023-03-02T13:55:18.373Z,42.10
2023-03-02T13:57:52.241Z,41.90
2023-03-02T14:00:29.471Z,42.20
2023-03-02T14:03:02.174Z,41.20
2023-03-02T14:05:34.281Z,42.20
2023-03-02T14:08:07.176Z,54.20
2023-03-02T14:10:41.166Z,48.00
2023-03-02T14:13:17.657Z,41.60
2023-03-02T14:15:52.278Z,44.60
2023-03-02T14:18:38.682Z,55.70
2023-03-02T14:21:15.910Z,56.20
2023-03-02T14:23:48.439Z,58.00
2023-03-02T14:26:33.481Z,54.80
2023-03-02T14:29:08.920Z,52.80
2023-03-02T14:32:33.857Z,99.50
2023-03-02T14:35:08.362Z,78.90
2023-03-02T14:37:42.630Z,61.50
2023-03-02T14:40:22.945Z,57.10
2023-03-02T14:42:57.342Z,51.20
2023-03-02T14:45:30.844Z,49.00
2023-03-02T14:48:02.763Z,77.80
2023-03-02T14:50:38.868Z,85.30
2023-03-02T14:53:15.430Z,83.60
2023-03-02T14:55:47.879Z,66.20
2023-03-02T14:58:21.324Z,46.70
2023-03-02T15:00:53.316Z,54.00
2023-03-02T15:03:26.860Z,62.20
2023-03-02T15:06:01.615Z,53.50
2023-03-02T15:08:34.013Z,54.80
2023-03-02T15:11:06.407Z,55.10
2023-03-02T15:13:38.195Z,48.00
2023-03-02T15:16:12.793Z,56.70
2023-03-02T15:18:44.903Z,47.40
2023-03-02T15:21:19.638Z,63.00
2023-03-02T15:23:51.845Z,61.90
2023-03-02T15:26:23.824Z,46.90
2023-03-02T15:28:56.120Z,34.10
2023-03-02T15:31:28.658Z,49.10
2023-03-02T15:34:00.934Z,48.10
2023-03-02T15:36:34.086Z,35.40
2023-03-02T15:39:07.792Z,42.00
2023-03-02T15:41:39.778Z,48.30
2023-03-02T15:44:22.652Z,39.70
2023-03-02T15:46:58.194Z,49.00
2023-03-02T15:49:33.045Z,38.10
2023-03-02T15:52:07.934Z,37.10
2023-03-02T15:54:45.284Z,31.80
2023-03-02T15:57:20.145Z,32.40
2023-03-02T15:59:55.323Z,34.70
2023-03-02T16:02:50.394Z,35.20
2023-03-02T16:05:26.940Z,36.10
2023-03-02T16:08:00.156Z,33.60
2023-03-02T16:10:37.850Z,40.10
2023-03-02T16:13:11.241Z,40.10
2023-03-02T16:15:46.027Z,44.80
2023-03-02T16:18:17.764Z,42.90
2023-03-02T16:20:50.565Z,36.90
2023-03-02T16:23:26.735Z,35.00
2023-03-02T16:26:10.863Z,36.90
2023-03-02T16:28:45.755Z,43.50
2023-03-02T16:31:19.750Z,39.80
2023-03-02T16:33:54.080Z,35.60
2023-03-02T16:36:27.158Z,33.10
2023-03-02T16:38:58.943Z,37.20
2023-03-02T16:41:30.757Z,31.70
2023-03-02T16:44:09.223Z,18.50
2023-03-02T16:46:43.820Z,32.10
2023-03-02T16:49:17.310Z,35.80
2023-03-02T16:51:49.586Z,32.00
2023-03-02T16:54:21.878Z,30.00
2023-03-02T16:56:58.068Z,29.50
2023-03-02T16:59:30.737Z,28.50
2023-03-02T17:02:02.599Z,21.70
2023-03-02T17:04:34.930Z,29.90
2023-03-02T17:07:08.469Z,27.50
2023-03-02T17:09:42.239Z,31.70
2023-03-02T17:12:14.339Z,33.30
2023-03-02T17:14:48.867Z,21.70
2023-03-02T17:17:20.766Z,30.20
2023-03-02T17:19:52.780Z,36.80
2023-03-02T17:22:24.815Z,39.10
2023-03-02T17:24:56.676Z,30.60
2023-03-02T17:27:29.094Z,36.90
2023-03-02T17:30:01.063Z,37.20
2023-03-02T17:32:33.534Z,46.80
2023-03-02T17:35:06.779Z,26.80
2023-03-02T17:37:39.129Z,35.60
2023-03-02T17:40:15.622Z,30.50
2023-03-02T17:42:47.867Z,35.40
2023-03-02T17:45:26.041Z,36.40
2023-03-02T17:47:59.456Z,33.70
2023-03-02T17:50:32.513Z,53.10
2023-03-02T17:53:04.599Z,47.00
2023-03-02T17:55:36.802Z,62.00
2023-03-02T17:58:09.079Z,46.20
2023-03-02T18:00:41.844Z,48.00
2023-03-02T18:05:44.786Z,45.80
2023-03-02T18:08:16.955Z,46.70
2023-03-02T18:10:49.116Z,50.80
2023-03-02T18:13:21.214Z,45.90
2023-03-02T18:15:53.598Z,46.50
2023-03-02T18:18:25.636Z,50.10
2023-03-02T18:20:57.824Z,62.00
2023-03-02T18:23:30.405Z,50.30
2023-03-02T18:26:02.200Z,49.30
2023-03-02T18:28:34.422Z,47.80
2023-03-02T18:31:06.935Z,48.50
2023-03-02T18:36:11.482Z,46.90
2023-03-02T18:38:43.870Z,49.50
2023-03-02T18:41:17.279Z,50.30
2023-03-02T18:43:50.166Z,49.00
2023-03-02T18:46:24.842Z,50.00
2023-03-02T18:48:58.058Z,50.80
2023-03-02T18:51:30.182Z,53.50
2023-03-02T18:54:02.038Z,53.40
2023-03-02T18:56:34.375Z,57.00
2023-03-02T18:59:08.692Z,49.60
2023-03-02T19:01:40.600Z,54.20
2023-03-02T19:04:13.284Z,51.40
2023-03-02T19:09:16.400Z,53.40
2023-03-02T19:11:48.225Z,55.60
2023-03-02T19:14:20.465Z,61.50
2023-03-02T19:16:52.826Z,66.50
2023-03-02T19:19:24.693Z,74.10
2023-03-02T19:21:57.738Z,68.70
2023-03-02T19:24:29.996Z,67.60
2023-03-02T19:27:02.477Z,61.80
2023-03-02T19:29:34.396Z,66.50
2023-03-02T19:32:07.695Z,62.70
2023-03-02T19:34:40.210Z,61.70
2023-03-02T19:37:12.416Z,65.80
2023-03-02T19:39:45.818Z,68.20
2023-03-02T19:42:18.411Z,54.50
2023-03-02T19:47:21.284Z,62.00
2023-03-02T19:49:53.075Z,55.70
2023-03-02T19:52:26.015Z,51.20
2023-03-02T19:54:57.897Z,60.40
2023-03-02T19:57:29.789Z,59.50
2023-03-02T20:00:02.096Z,43.40
2023-03-02T20:02:39.580Z,65.20
2023-03-02T20:05:13.415Z,65.20
2023-03-02T20:07:46.154Z,75.60
2023-03-02T20:10:27.295Z,73.50
2023-03-02T20:13:00.706Z,73.90
2023-03-02T20:15:38.125Z,68.00
2023-03-02T20:18:17.145Z,65.80
2023-03-02T20:20:50.048Z,75.70
2023-03-02T20:23:22.655Z,82.60
2023-03-02T20:25:54.987Z,79.50
2023-03-02T20:28:27.267Z,72.60
2023-03-02T20:31:01.669Z,71.30
2023-03-02T20:33:39.473Z,74.00
2023-03-02T20:36:13.019Z,82.90
2023-03-02T20:38:49.371Z,82.80
2023-03-02T20:41:21.542Z,75.40
2023-03-02T20:43:53.663Z,82.80
2023-03-02T20:46:29.102Z,81.00
2023-03-02T20:49:02.490Z,80.00
2023-03-02T20:51:34.732Z,81.30
2023-03-02T20:54:06.765Z,85.10
2023-03-02T20:56:38.641Z,63.30
2023-03-02T20:59:10.478Z,83.20
2023-03-02T21:01:43.508Z,83.60
2023-03-02T21:04:15.675Z,85.80
2023-03-02T21:06:48.556Z,97.00
2023-03-02T21:09:21.293Z,89.40
2023-03-02T21:11:53.371Z,96.20
2023-03-02T21:14:26.163Z,96.80
2023-03-02T21:19:29.594Z,90.00
2023-03-02T21:22:01.558Z,90.20
2023-03-02T21:24:33.536Z,61.00
2023-03-02T21:27:07.245Z,95.70
2023-03-02T21:29:39.211Z,94.20
2023-03-02T21:32:11.130Z,92.90
2023-03-02T21:34:44.590Z,96.70
2023-03-02T21:37:16.853Z,105.90
2023-03-02T21:39:48.755Z,94.00
2023-03-02T21:42:24.575Z,91.00
2023-03-02T21:44:56.633Z,94.90
2023-03-02T21:47:29.675Z,85.90
2023-03-02T21:50:01.884Z,97.20
2023-03-02T21:52:34.106Z,91.40
2023-03-02T21:55:06.573Z,88.90
2023-03-02T21:57:38.687Z,95.50
2023-03-02T22:00:19.807Z,93.10
2023-03-02T22:02:53.500Z,92.20
2023-03-02T22:05:26.100Z,94.60
2023-03-02T22:07:58.453Z,93.80
2023-03-02T22:10:35.089Z,89.00
2023-03-02T22:13:18.576Z,82.60
2023-03-02T22:15:52.088Z,79.50
2023-03-02T22:18:26.999Z,94.10
2023-03-02T22:20:58.826Z,85.70
2023-03-02T22:23:30.639Z,69.50
2023-03-02T22:26:15.664Z,90.60
2023-03-02T22:28:47.460Z,91.70
2023-03-02T22:31:23.195Z,91.70
2023-03-02T22:33:55.400Z,91.40
2023-03-02T22:36:27.371Z,90.10
2023-03-02T22:39:07.265Z,93.30
2023-03-02T22:41:39.302Z,99.80
2023-03-02T22:44:15.258Z,99.10
2023-03-02T22:46:47.249Z,93.60
2023-03-02T22:49:19.815Z,91.30
2023-03-02T22:51:52.017Z,83.50
2023-03-02T22:54:32.054Z,90.00
2023-03-02T22:57:07.062Z,94.20
2023-03-02T22:59:39.916Z,97.90
2023-03-02T23:02:18.594Z,96.90
2023-03-02T23:04:51.185Z,99.40
2023-03-02T23:07:24.063Z,96.10
2023-03-02T23:12:28.048Z,97.50
2023-03-02T23:15:01.135Z,92.00
2023-03-02T23:20:11.653Z,82.80
2023-03-02T23:22:44.407Z,94.00
2023-03-02T23:25:16.652Z,104.60
2023-03-02T23:27:48.622Z,104.30
2023-03-02T23:30:22.418Z,89.90
2023-03-02T23:32:54.485Z,112.80
2023-03-02T23:35:27.060Z,61.90
2023-03-02T23:40:30.221Z,95.20
2023-03-02T23:43:02.479Z,100.40
2023-03-02T23:45:34.789Z,94.70
2023-03-02T23:48:07.321Z,102.90
2023-03-02T23:53:09.775Z,114.00
2023-03-02T23:55:46.108Z,100.30
2023-03-02T23:58:18.357Z,106.40
